createdAt,value
2023-04-02T00:04:16.923Z,12.19
2023-04-02T00:08:23.790Z,12.15
2023-04-02T00:12:28.046Z,12.03
2023-04-02T00:16:33.484Z,12.00
2023-04-02T00:20:43.171Z,11.92
2023-04-02T00:24:46.415Z,11.81
2023-04-02T00:28:49.622Z,11.77
2023-04-02T00:32:54.172Z,11.73
2023-04-02T00:36:58.363Z,11.66
2023-04-02T00:41:04.920Z,11.62
2023-04-02T00:45:19.336Z,11.54
2023-04-02T00:49:31.262Z,11.57
2023-04-02T00:53:37.436Z,11.53
2023-04-02T00:57:43.184Z,11.50
2023-04-02T01:01:46.918Z,11.48
2023-04-02T01:05:57.488Z,11.44
2023-04-02T01:10:16.192Z,11.44
2023-04-02T01:14:26.939Z,11.45
2023-04-02T01:18:46.860Z,11.48
2023-04-02T01:22:57.943Z,11.46
2023-04-02T01:27:03.554Z,11.46
2023-04-02T01:31:08.184Z,11.44
2023-04-02T01:35:12.151Z,11.45
2023-04-02T01:39:40.015Z,11.47
2023-04-02T01:43:52.245Z,11.51
2023-04-02T01:47:57.672Z,11.48
2023-04-02T01:52:01.520Z,11.50
2023-04-02T01:56:07.675Z,11.51
2023-04-02T02:00:16.383Z,11.54
2023-04-02T02:04:20.964Z,11.58
2023-04-02T02:08:34.843Z,11.56
2023-04-02T02:12:37.759Z,11.56
2023-04-02T02:16:43.166Z,11.56
2023-04-02T02:20:48.588Z,11.62
2023-04-02T02:24:52.006Z,11.59
2023-04-02T02:28:58.757Z,11.62
2023-04-02T02:33:09.348Z,11.65
2023-04-02T02:37:17.480Z,11.67
2023-04-02T02:41:26.583Z,11.72
2023-04-02T02:45:35.732Z,11.73
2023-04-02T02:49:42.767Z,11.78
2023-04-02T02:53:53.940Z,11.81
2023-04-02T02:58:01.332Z,11.83
2023-04-02T03:02:07.280Z,11.83
2023-04-02T03:06:17.098Z,11.85
2023-04-02T03:10:29.208Z,11.85
2023-04-02T03:14:37.308Z,11.87
2023-04-02T03:18:47.634Z,11.84
2023-04-02T03:22:59.154Z,11.79
2023-04-02T03:27:08.776Z,11.81
2023-04-02T03:31:19.307Z,11.80
2023-04-02T03:35:29.640Z,11.79
2023-04-02T03:39:37.945Z,11.76
2023-04-02T03:43:47.016Z,11.73
2023-04-02T03:47:55.992Z,11.72
2023-04-02T03:52:04.488Z,11.67
2023-04-02T03:56:08.562Z,11.62
2023-04-02T04:00:20.925Z,11.57
2023-04-02T04:04:27.587Z,11.56
2023-04-02T04:08:38.266Z,11.52
2023-04-02T04:12:45.215Z,11.53
2023-04-02T04:16:54.790Z,11.55
2023-04-02T04:21:03.408Z,11.51
2023-04-02T04:25:19.761Z,11.53
2023-04-02T04:29:39.262Z,11.57
2023-04-02T04:33:50.822Z,11.58
2023-04-02T04:37:59.937Z,11.59
2023-04-02T04:42:07.223Z,11.61
2023-04-02T04:46:15.045Z,11.64
2023-04-02T04:50:30.106Z,11.65
2023-04-02T04:54:33.999Z,11.65
2023-04-02T04:58:45.129Z,11.67
2023-04-02T05:02:53.214Z,11.69
2023-04-02T05:07:05.118Z,11.72
2023-04-02T05:11:13.705Z,11.70
2023-04-02T05:15:21.830Z,11.69
2023-04-02T05:19:32.734Z,11.73
2023-04-02T05:23:46.497Z,11.74
2023-04-02T05:27:56.058Z,11.77
2023-04-02T05:32:04.621Z,11.79
2023-04-02T05:36:11.989Z,11.88
2023-04-02T05:40:24.654Z,11.90
2023-04-02T05:44:31.188Z,11.91
2023-04-02T05:48:39.268Z,12.01
2023-04-02T05:52:47.969Z,12.07
2023-04-02T05:56:57.834Z,12.12
2023-04-02T06:01:18.088Z,12.20
2023-04-02T06:05:25.983Z,12.22
2023-04-02T06:09:48.238Z,12.22
2023-04-02T06:13:52.907Z,12.21
2023-04-02T06:18:02.364Z,12.20
2023-04-02T06:22:18.103Z,12.17
2023-04-02T06:26:28.351Z,12.17
2023-04-02T06:30:36.905Z,12.16
2023-04-02T06:34:42.568Z,12.18
2023-04-02T06:38:46.450Z,12.16
2023-04-02T06:42:52.923Z,12.21
2023-04-02T06:47:00.284Z,12.26
2023-04-02T06:51:08.917Z,12.34
2023-04-02T06:55:30.438Z,12.44
2023-04-02T06:59:33.810Z,12.56
2023-04-02T07:03:38.142Z,12.68
2023-04-02T07:07:41.540Z,12.77
2023-04-02T07:11:44.511Z,12.92
2023-04-02T07:15:49.557Z,12.99
2023-04-02T07:19:53.967Z,13.03
2023-04-02T07:23:57.625Z,13.06
2023-04-02T07:28:01.575Z,13.11
2023-04-02T07:32:04.797Z,13.15
2023-04-02T07:36:13.864Z,13.23
2023-04-02T07:40:20.977Z,13.30
2023-04-02T07:44:24.408Z,13.38
2023-04-02T07:48:27.917Z,13.44
2023-04-02T07:52:33.143Z,13.49
2023-04-02T07:56:37.141Z,13.57
2023-04-02T08:00:40.739Z,13.50
2023-04-02T08:04:44.121Z,13.53
2023-04-02T08:08:49.156Z,13.51
2023-04-02T08:12:52.726Z,13.48
2023-04-02T08:16:57.347Z,13.34
2023-04-02T08:21:01.690Z,13.34
2023-04-02T08:25:07.536Z,13.34
2023-04-02T08:29:11.458Z,13.39
2023-04-02T08:33:17.179Z,13.41
2023-04-02T08:37:25.670Z,13.43
2023-04-02T08:41:32.372Z,13.42
2023-04-02T08:45:48.188Z,13.35
2023-04-02T08:49:58.088Z,13.29
2023-04-02T08:54:09.868Z,13.23
2023-04-02T08:58:29.946Z,13.25
2023-04-02T09:02:43.527Z,13.27
2023-04-02T09:11:04.735Z,13.38
2023-04-02T09:15:20.587Z,13.38
2023-04-02T09:19:26.462Z,13.39
2023-04-02T09:23:29.637Z,13.30
2023-04-02T09:27:34.155Z,13.30
2023-04-02T09:31:43.414Z,13.22
2023-04-02T09:40:17.879Z,13.02
2023-04-02T09:44:24.280Z,12.91
2023-04-02T09:52:38.497Z,12.74
2023-04-02T09:56:43.199Z,12.62
2023-04-02T10:00:56.315Z,12.50
2023-04-02T10:09:33.790Z,12.38
2023-04-02T10:13:53.567Z,12.30
2023-04-02T10:22:13.795Z,12.19
2023-04-02T10:26:46.886Z,12.17
2023-04-02T10:30:59.180Z,12.19
2023-04-02T10:35:05.290Z,12.18
2023-04-02T10:39:15.574Z,12.17
2023-04-02T10:43:59.308Z,12.22
2023-04-02T10:48:17.657Z,12.27
2023-04-02T10:52:25.327Z,12.35
2023-04-02T10:56:37.770Z,12.38
2023-04-02T11:00:50.541Z,12.58
2023-04-02T11:05:01.938Z,12.74
2023-04-02T11:09:08.990Z,12.90
2023-04-02T11:13:19.828Z,13.09
2023-04-02T11:17:23.614Z,13.21
2023-04-02T11:21:57.152Z,13.38
2023-04-02T11:26:38.737Z,13.51
2023-04-02T11:30:43.129Z,13.59
2023-04-02T11:35:21.267Z,13.66
2023-04-02T11:39:57.308Z,13.67
2023-04-02T11:44:04.115Z,13.70
2023-04-02T11:48:31.379Z,13.71
2023-04-02T11:52:51.310Z,13.75
2023-04-02T11:57:13.493Z,13.84
2023-04-02T12:01:53.123Z,13.78
2023-04-02T12:06:04.122Z,13.77
2023-04-02T12:10:24.235Z,13.76
2023-04-02T12:14:54.109Z,13.75
2023-04-02T12:23:33.690Z,13.47
2023-04-02T12:27:49.733Z,13.35
2023-04-02T12:32:23.305Z,13.30
2023-04-02T12:36:56.538Z,12.86
2023-04-02T12:41:04.264Z,13.29
2023-04-02T12:45:54.338Z,12.73
2023-04-02T12:50:08.224Z,13.07
2023-04-02T12:54:26.840Z,12.90
2023-04-02T12:58:49.541Z,12.67
2023-04-02T13:03:14.988Z,13.01
2023-04-02T13:07:23.273Z,13.15
2023-04-02T13:11:35.923Z,13.26
2023-04-02T13:15:39.353Z,13.19
2023-04-02T13:19:42.609Z,13.11
2023-04-02T13:23:47.601Z,13.09
2023-04-02T13:27:51.104Z,13.02
2023-04-02T13:31:57.512Z,12.91
2023-04-02T13:36:00.598Z,12.78
2023-04-02T13:40:09.254Z,12.71
2023-04-02T13:44:28.490Z,12.61
2023-04-02T13:48:32.203Z,12.54
2023-04-02T13:52:36.822Z,12.49
2023-04-02T13:56:43.695Z,12.46
2023-04-02T14:00:48.146Z,12.42
2023-04-02T14:04:54.323Z,12.38
2023-04-02T14:09:07.025Z,12.36
2023-04-02T14:13:23.198Z,12.33
2023-04-02T14:17:36.495Z,12.24
2023-04-02T14:21:51.417Z,12.11
2023-04-02T14:26:03.895Z,11.96
2023-04-02T14:30:18.132Z,11.80
2023-04-02T14:34:32.367Z,11.62
2023-04-02T14:38:40.844Z,11.45
2023-04-02T14:42:49.310Z,11.20
2023-04-02T14:46:57.859Z,11.06
2023-04-02T14:51:06.943Z,10.97
2023-04-02T14:55:15.677Z,10.82
2023-04-02T14:59:27.882Z,10.73
2023-04-02T15:03:37.959Z,10.66
2023-04-02T15:07:46.580Z,10.55
2023-04-02T15:11:53.258Z,10.49
2023-04-02T15:16:00.531Z,10.39
2023-04-02T15:20:14.959Z,10.24
2023-04-02T15:24:28.290Z,10.18
2023-04-02T15:28:37.327Z,10.13
2023-04-02T15:32:41.871Z,10.08
2023-04-02T15:37:06.536Z,10.00
2023-04-02T15:41:16.819Z,9.94
2023-04-02T15:45:28.562Z,9.87
2023-04-02T15:49:44.339Z,9.82
2023-04-02T15:53:57.996Z,9.77
2023-04-02T15:58:26.585Z,9.72
2023-04-02T16:02:58.809Z,9.70
2023-04-02T16:07:20.084Z,9.65
2023-04-02T16:11:27.647Z,9.60
2023-04-02T16:15:38.264Z,9.55
2023-04-02T16:19:46.502Z,9.52
2023-04-02T16:23:50.638Z,9.46
2023-04-02T16:28:06.931Z,9.39
2023-04-02T16:32:22.116Z,8.94
2023-04-02T16:36:36.657Z,9.24
2023-04-02T16:40:57.083Z,9.20
2023-04-02T16:45:19.174Z,9.13
2023-04-02T16:49:36.553Z,9.07
2023-04-02T16:54:00.611Z,9.01
2023-04-02T16:58:21.075Z,8.96
2023-04-02T17:02:40.092Z,8.90
2023-04-02T17:06:45.032Z,8.88
2023-04-02T17:10:52.380Z,8.84
2023-04-02T17:15:00.190Z,8.81
2023-04-02T17:19:15.700Z,8.77
2023-04-02T17:23:22.181Z,8.75
2023-04-02T17:27:29.613Z,8.73
2023-04-02T17:31:37.621Z,8.73
2023-04-02T17:35:54.059Z,8.78
2023-04-02T17:40:10.157Z,8.77
2023-04-02T17:44:29.675Z,8.75
2023-04-02T17:48:42.563Z,8.74
2023-04-02T17:52:53.291Z,8.74
2023-04-02T17:57:16.885Z,8.71
2023-04-02T18:01:26.662Z,8.70
2023-04-02T18:05:33.052Z,8.68
2023-04-02T18:09:45.703Z,8.61
2023-04-02T18:13:55.592Z,8.66
2023-04-02T18:18:08.461Z,8.63
2023-04-02T18:22:18.865Z,8.66
2023-04-02T18:26:34.358Z,8.65
2023-04-02T18:30:42.179Z,8.65
2023-04-02T18:35:00.140Z,8.63
2023-04-02T18:39:16.456Z,8.62
2023-04-02T18:43:38.437Z,8.62
2023-04-02T18:47:53.021Z,8.61
2023-04-02T18:52:01.062Z,8.63
2023-04-02T18:56:09.667Z,8.62
2023-04-02T19:00:30.168Z,8.58
2023-04-02T19:04:36.805Z,8.61
2023-04-02T19:08:49.554Z,8.51
2023-04-02T19:12:53.736Z,8.62
2023-04-02T19:17:15.183Z,8.64
2023-04-02T19:21:28.347Z,8.64
2023-04-02T19:25:47.863Z,8.67
2023-04-02T19:30:04.058Z,8.66
2023-04-02T19:34:21.603Z,8.66
2023-04-02T19:38:51.009Z,8.62
2023-04-02T19:42:55.567Z,8.65
2023-04-02T19:46:59.620Z,8.64
2023-04-02T19:51:04.297Z,8.64
2023-04-02T19:55:08.787Z,8.62
2023-04-02T19:59:18.047Z,8.60
2023-04-02T20:03:23.974Z,8.55
2023-04-02T20:07:28.561Z,8.54
2023-04-02T20:11:33.070Z,8.50
2023-04-02T20:15:37.387Z,8.51
2023-04-02T20:19:41.454Z,8.50
2023-04-02T20:23:46.380Z,8.50
2023-04-02T20:27:49.736Z,8.48
2023-04-02T20:31:53.750Z,8.47
2023-04-02T20:36:05.441Z,8.46
2023-04-02T20:40:12.415Z,8.44
2023-04-02T20:44:16.236Z,8.42
2023-04-02T20:48:22.436Z,8.41
2023-04-02T20:52:26.575Z,8.37
2023-04-02T20:56:32.980Z,8.35
2023-04-02T21:00:36.512Z,8.34
2023-04-02T21:04:39.756Z,8.33
2023-04-02T21:08:43.952Z,8.31
2023-04-02T21:12:49.853Z,8.30
2023-04-02T21:16:53.797Z,8.27
2023-04-02T21:21:01.836Z,8.26
2023-04-02T21:25:06.068Z,8.25
2023-04-02T21:29:12.679Z,8.23
2023-04-02T21:33:16.226Z,8.22
2023-04-02T21:37:19.516Z,8.20
2023-04-02T21:41:24.910Z,8.19
2023-04-02T21:45:29.861Z,8.12
2023-04-02T21:49:33.400Z,8.14
2023-04-02T21:53:37.239Z,8.04
2023-04-02T21:57:41.251Z,8.14
2023-04-02T22:01:47.476Z,8.13
2023-04-02T22:05:50.860Z,8.11
2023-04-02T22:09:53.887Z,8.10
2023-04-02T22:13:57.583Z,8.07
2023-04-02T22:18:02.213Z,8.06
2023-04-02T22:22:06.351Z,8.05
2023-04-02T22:26:10.286Z,8.03
2023-04-02T22:30:14.780Z,8.03
2023-04-02T22:34:19.866Z,8.01
2023-04-02T22:38:23.118Z,8.02
2023-04-02T22:42:26.968Z,8.01
2023-04-02T22:46:32.172Z,7.98
2023-04-02T22:50:37.089Z,7.99
2023-04-02T22:54:40.975Z,7.96
2023-04-02T22:58:45.010Z,7.93
2023-04-02T23:02:49.228Z,7.93
2023-04-02T23:06:54.209Z,7.91
2023-04-02T23:11:03.703Z,7.90
2023-04-02T23:15:08.260Z,7.87
2023-04-02T23:19:12.336Z,7.87
2023-04-02T23:23:17.029Z,7.85
2023-04-02T23:27:21.802Z,7.84
2023-04-02T23:31:25.646Z,7.83
2023-04-02T23:35:29.717Z,7.84
2023-04-02T23:39:34.216Z,7.84
2023-04-02T23:43:37.577Z,7.82
2023-04-02T23:47:40.706Z,7.80
2023-04-02T23:51:44.479Z,7.80
2023-04-02T23:55:48.885Z,7.80
2023-04-02T23:59:53.031Z,7.74
